Tara — FVNM — position and weather

sailwx.info

Track history (hours):
 
Tides and Currents Weather Stations Pressure Air Temp Water Temp Dewpoint Dewpoint Depression Visibility Wind Speed Wind Dir Waves Ship Positions

Oceanographic research ship Tara (France)

Ex Antarctica.

Ship's website: http://www.taraexpeditions.org/site/index.php?id_lang_global_new=uk

Last reported at 2019-Dec-15 10:00 UTC. Time now 2019-Dec-15 11:03 UTC.
Position N 47°42' W 003°24'.

Length 36 m; beam 10 m.

Type: Other ship. MMSI: 226070000.

Barometer 1003.3 mb
Water temperature 10.4 ° C

Date/timePositionNaut miles runAvg speedWind from/ knotsBaromVisibWave heightAir tempDewpointWater temp
2019-Dec-15 10:00N 47°42' W 003°24'0 0.0 1003.3 10.4
2019-Dec-15 09:00N 47°42' W 003°24'0 0.0 1002.8 10.2
2019-Dec-15 08:00N 47°42' W 003°24'2 4.6 1002.3 10.2
2019-Dec-15 07:28N 47°44' W 003°22'2 5.0
2019-Dec-15 07:00N 47°42' W 003°24'0 0.0 1002.1 10.2
2019-Dec-15 06:00N 47°42' W 003°24'0 0.0 1001.5 10.4
2019-Dec-15 05:00N 47°42' W 003°24'2 2.4 1001.1 10.5
2019-Dec-15 04:00N 47°44' W 003°22'2209.8
2019-Dec-15 04:00N 47°42' W 003°24'2 4.9 1000.6 10.9
2019-Dec-15 03:30N 47°44' W 003°22'0 0.0
2019-Dec-15 03:00N 47°44' W 003°22'2220.5
2019-Dec-15 03:00N 47°42' W 003°24'0 0.0 1000.1 11.0
2019-Dec-15 02:00N 47°42' W 003°24'2 2.4 999.4 11.2
2019-Dec-15 01:00N 47°44' W 003°22'2232.3
2019-Dec-15 01:00N 47°42' W 003°24'0 0.0 998.9 11.7
2019-Dec-15 00:00N 47°42' W 003°24'2103.6 998.1 12.2
2019-Dec-14 23:58N 47°44' W 003°22'0 0.0
2019-Dec-14 23:26N 47°44' W 003°22'2 5.4
2019-Dec-14 23:00N 47°42' W 003°24'0 0.0 997.2 12.7
2019-Dec-14 22:00N 47°42' W 003°24'0 0.0 996.9 12.7
2019-Dec-14 21:00N 47°42' W 003°24'0 0.0 997.0 12.4
2019-Dec-14 20:00N 47°42' W 003°24'0 0.0 996.9 12.5
2019-Dec-14 19:00N 47°42' W 003°24'0 0.0 998.0 12.2
2019-Dec-14 18:00N 47°42' W 003°24'2 4.9 998.8 12.4
2019-Dec-14 17:30N 47°44' W 003°22'2 4.7
2019-Dec-14 17:00N 47°42' W 003°24'0 0.0 999.4 12.2
2019-Dec-14 16:00N 47°42' W 003°24'2 4.6 1000.3 12.7
2019-Dec-14 15:28N 47°44' W 003°22'2 5.0
2019-Dec-14 15:00N 47°42' W 003°24'2106.2 1000.7 12.9
2019-Dec-14 14:58N 47°44' W 003°22'0 0.0
2019-Dec-14 14:28N 47°44' W 003°22'2 5.0
2019-Dec-14 14:00N 47°42' W 003°24'0 0.0 1001.6 13.4
2019-Dec-14 13:00N 47°42' W 003°24'2 4.7 1002.2 13.9
2019-Dec-14 12:29N 47°44' W 003°22'2 4.8
2019-Dec-14 12:00N 47°42' W 003°24'0 0.0 1002.7 13.4
2019-Dec-14 11:00N 47°42' W 003°24'2 4.9 1002.8 12.7
2019-Dec-14 10:30N 47°44' W 003°22'2 4.7
2019-Dec-14 10:00N 47°42' W 003°24'2 4.9 1002.2 12.0
2019-Dec-14 09:30N 47°44' W 003°22'2 4.7
2019-Dec-14 09:00N 47°42' W 003°24'0 0.0 1001.2 11.5
2019-Dec-14 08:00N 47°42' W 003°24'2 2.4 1000.2 11.4
2019-Dec-14 07:00N 47°44' W 003°22'2209.7
2019-Dec-14 07:00N 47°42' W 003°24'2 4.9 999.7 11.4
2019-Dec-14 06:30N 47°44' W 003°22'2 4.7
2019-Dec-14 06:00N 47°42' W 003°24'2390.9 999.3 11.4
2019-Dec-14 05:59N 47°44' W 003°22'2 2.4
2019-Dec-14 05:00N 47°42' W 003°24'2409.6 999.3 11.2
2019-Dec-14 04:59N 47°44' W 003°22'0 0.0
2019-Dec-14 04:30N 47°44' W 003°22'2 4.7
2019-Dec-14 04:00N 47°42' W 003°24'2 4.9 999.5 11.4
2019-Dec-14 03:30N 47°44' W 003°22'2 4.7
2019-Dec-14 03:00N 47°42' W 003°24'2104.8 999.3 11.7
2019-Dec-14 02:58N 47°44' W 003°22'2 2.4
2019-Dec-14 02:00N 47°42' W 003°24'2 4.6 998.3 11.9
2019-Dec-14 01:28N 47°44' W 003°22'2 5.0
2019-Dec-14 01:00N 47°42' W 003°24'0 0.0 997.3 12.4
2019-Dec-14 00:00N 47°42' W 003°24'2 4.7 996.2 12.9
2019-Dec-13 23:29N 47°44' W 003°22'2 4.8
2019-Dec-13 23:00N 47°42' W 003°24'2 4.7 995.0 12.9
2019-Dec-13 22:29N 47°44' W 003°22'2 4.8
2019-Dec-13 22:00N 47°42' W 003°24'0 0.0 994.4 13.0
2019-Dec-13 21:00N 47°42' W 003°24'2 4.6 994.3 12.9
2019-Dec-13 20:28N 47°44' W 003°22'2 5.0
2019-Dec-13 20:00N 47°42' W 003°24'0 0.0 994.6 12.9
2019-Dec-13 19:00N 47°42' W 003°24'2 4.7 994.4 12.7
2019-Dec-13 18:29N 47°44' W 003°22'2 4.8
2019-Dec-13 18:00N 47°42' W 003°24'0 0.0 994.3 12.5
2019-Dec-13 17:00N 47°42' W 003°24'2409.3 994.4 11.9
2019-Dec-13 16:59N 47°44' W 003°22'2 2.4
2019-Dec-13 16:00N 47°42' W 003°24'2506.1 995.3 11.2
2019-Dec-13 15:59N 47°44' W 003°22'2 2.4
2019-Dec-13 15:00N 47°42' W 003°24'0 0.0 995.9 11.4
2019-Dec-13 14:00N 47°42' W 003°24'0 0.0 996.3 11.4
2019-Dec-13 13:00N 47°42' W 003°24'0 0.0 996.6 11.4
2019-Dec-13 12:00N 47°42' W 003°24'0 0.0 996.5 11.4
2019-Dec-13 11:00N 47°42' W 003°24'0 0.0 996.0 10.5
2019-Dec-13 10:00N 47°42' W 003°24'0 0.0 995.6 9.7
2019-Dec-13 09:00N 47°42' W 003°24'2 4.9 994.1 9.2
2019-Dec-13 08:30N 47°44' W 003°22'2 4.7
2019-Dec-13 08:00N 47°42' W 003°24'0 0.0 993.4 9.2
2019-Dec-13 07:00N 47°42' W 003°24'2122.8 991.7 9.4
2019-Dec-13 06:58N 47°44' W 003°22'0 0.0
2019-Dec-13 06:28N 47°44' W 003°22'2 5.0
2019-Dec-13 06:00N 47°42' W 003°24'2119.1 990.8 9.5
2019-Dec-13 05:58N 47°44' W 003°22'2 2.4
2019-Dec-13 05:00N 47°42' W 003°24'2 4.9 989.1 9.9
2019-Dec-13 04:30N 47°44' W 003°22'2 4.7
2019-Dec-13 04:00N 47°42' W 003°24'0 0.0 988.8 10.2
2019-Dec-13 03:00N 47°42' W 003°24'0 0.0 987.7 10.7
2019-Dec-13 02:00N 47°42' W 003°24'265.1 986.5 10.9
2019-Dec-13 01:57N 47°44' W 003°22'2 2.5
2019-Dec-13 01:00N 47°42' W 003°24'0 0.0 985.8 11.2
2019-Dec-13 00:00N 47°42' W 003°24'2 4.8 985.0 12.7
2019-Dec-12 23:29N 47°44' W 003°22'2 4.8
2019-Dec-12 23:00N 47°42' W 003°24'0 0.0 985.8 12.4
2019-Dec-12 22:00N 47°42' W 003°24'0 0.0 987.1 12.2
2019-Dec-12 21:00N 47°42' W 003°24'0 0.0 988.2 12.2
2019-Dec-12 20:00N 47°42' W 003°24'2716.3 988.7 12.2
2019-Dec-12 19:59N 47°44' W 003°22'2 2.4
2019-Dec-12 19:00N 47°42' W 003°24'0 0.0 989.8 12.0
2019-Dec-12 18:00N 47°42' W 003°24'2 0.8 990.1 11.9
2019-Dec-12 15:00N 47°44' W 003°22'0 0.0
2019-Dec-12 13:30N 47°44' W 003°22'0 0.0
2019-Dec-12 12:31N 47°44' W 003°22'0 0.0
2019-Dec-12 11:00N 47°44' W 003°22'0 0.0
2019-Dec-12 10:30N 47°44' W 003°22'0 0.0
2019-Dec-12 08:59N 47°44' W 003°22'0 0.0
2019-Dec-12 07:28N 47°44' W 003°22'2 5.1
2019-Dec-12 07:00N 47°42' W 003°24'0 0.0 1000.9 10.2
2019-Dec-12 06:00N 47°42' W 003°24'2148.3 1002.7 9.9
2019-Dec-12 05:59N 47°44' W 003°22'2 2.4
2019-Dec-12 05:00N 47°42' W 003°24'2 4.5 1003.8 9.4
2019-Dec-12 04:28N 47°44' W 003°22'2 5.1
2019-Dec-12 04:00N 47°42' W 003°24'0 0.0 1005.6 8.9
2019-Dec-12 03:00N 47°42' W 003°24'0 0.0 1007.2 8.4
2019-Dec-12 02:00N 47°42' W 003°24'2148.3 1008.4 7.7
2019-Dec-12 01:59N 47°44' W 003°22'0 0.0
2019-Dec-12 01:29N 47°44' W 003°22'2 4.9
2019-Dec-12 01:00N 47°42' W 003°24'2 4.0 1009.4 7.5
2019-Dec-12 00:24N 47°44' W 003°22'0 0.0
2019-Dec-12 00:01N 47°44' W 003°22'2140.9
2019-Dec-12 00:00N 47°42' W 003°24'0 0.0 1010.3 7.4
2019-Dec-11 23:00N 47°42' W 003°24'2 4.8 1010.8 7.2
2019-Dec-11 22:30N 47°44' W 003°22'2 4.8
2019-Dec-11 22:00N 47°42' W 003°24'0 0.0 1011.1 7.2
2019-Dec-11 21:00N 47°42' W 003°24'28616.4 1011.0 7.2
2019-Dec-11 20:59N 47°44' W 003°22'2 2.4
2019-Dec-11 20:00N 47°42' W 003°24'2 5.0 1010.6 7.4
2019-Dec-11 19:31N 47°44' W 003°22'2 4.6
2019-Dec-11 19:00N 47°42' W 003°24'0 0.0 1010.4 7.5
2019-Dec-11 18:00N 47°42' W 003°24'0 0.0 1010.1 7.7
2019-Dec-11 17:00N 47°42' W 003°24'0 0.0 1009.5 7.9
2019-Dec-11 16:00N 47°42' W 003°24'0 0.0 1009.0 8.4
2019-Dec-11 15:00N 47°42' W 003°24'0 0.0 1008.2 8.7
2019-Dec-11 14:00N 47°42' W 003°24'2 0.8 1007.8 9.4
2019-Dec-11 11:01N 47°44' W 003°22'0 0.0
2019-Dec-11 09:00N 47°44' W 003°22'0 0.1
2019-Dec-11 07:28N 47°44' W 003°22'0 0.2
2019-Dec-11 06:01N 47°44' W 003°22'0 0.0
2019-Dec-11 04:29N 47°44' W 003°22'0 0.0
2019-Dec-11 03:27N 47°44' W 003°22'0 0.0
2019-Dec-11 03:01N 47°44' W 003°22'0 0.0
2019-Dec-10 22:59N 47°44' W 003°22'0 0.0
2019-Dec-10 21:59N 47°44' W 003°22'0 0.0
2019-Dec-10 20:30N 47°44' W 003°22'0 0.0
2019-Dec-10 18:29N 47°44' W 003°22'0 0.0
2019-Dec-10 16:28N 47°44' W 003°22'0 0.0
2019-Dec-10 14:30N 47°44' W 003°22'0 0.0
2019-Dec-10 12:59N 47°44' W 003°22'0 0.0
2019-Dec-10 12:29N 47°44' W 003°22'0 0.0
2019-Dec-10 11:28N 47°44' W 003°22'0 0.0
2019-Dec-10 10:28N 47°44' W 003°22'0 0.0
2019-Dec-10 09:28N 47°44' W 003°22'0 0.0
2019-Dec-10 08:58N 47°44' W 003°22'0 0.0
2019-Dec-10 06:29N 47°44' W 003°22'0 0.0
2019-Dec-10 04:28N 47°44' W 003°22'0 0.0
2019-Dec-10 03:28N 47°44' W 003°22'0 0.0
2019-Dec-10 02:58N 47°44' W 003°22'0 0.0
2019-Dec-10 01:58N 47°44' W 003°22'0 0.0
2019-Dec-09 21:58N 47°44' W 003°22'0 0.0
2019-Dec-09 20:58N 47°44' W 003°22'0 0.0
2019-Dec-09 20:28N 47°44' W 003°22'0 0.0
2019-Dec-09 19:58N 47°44' W 003°22'0 0.0
2019-Dec-09 17:59N 47°44' W 003°22'0 0.0
2019-Dec-09 06:57N 47°44' W 003°22'0 0.0
2019-Dec-09 04:29N 47°44' W 003°22'0 0.0
2019-Dec-09 03:30N 47°44' W 003°22'0 0.0
2019-Dec-08 22:29N 47°44' W 003°22'0 0.0
2019-Dec-08 20:30N 47°44' W 003°22'0 0.0
2019-Dec-08 20:00N 47°44' W 003°22'0 0.0
2019-Dec-08 18:00N 47°44' W 003°22'0 0.0
2019-Dec-08 17:00N 47°44' W 003°22'0 0.0
2019-Dec-08 13:00N 47°44' W 003°22'0 0.0
2019-Dec-08 11:00N 47°44' W 003°22'0 0.0
2019-Dec-08 10:00N 47°44' W 003°22'0 0.0
2019-Dec-08 09:00N 47°44' W 003°22'0 0.0
2019-Dec-08 03:28N 47°44' W 003°22'0 0.0
2019-Dec-08 02:59N 47°44' W 003°22'0 0.0
2019-Dec-08 02:29N 47°44' W 003°22'0 0.0
2019-Dec-08 01:29N 47°44' W 003°22'0 0.0
2019-Dec-08 00:00N 47°44' W 003°22'0 0.0
2019-Dec-07 23:30N 47°44' W 003°22'0 0.0
2019-Dec-07 21:30N 47°44' W 003°22'0 0.0
2019-Dec-07 20:29N 47°44' W 003°22'2 0.5
2019-Dec-07 16:00N 47°42' W 003°24'2 4.2 1018.6 10.7
2019-Dec-07 15:30N 47°44' W 003°22'2 4.0
2019-Dec-07 15:00N 47°42' W 003°24'2 4.2 1018.7 10.7
2019-Dec-07 14:31N 47°44' W 003°22'2 4.0
2019-Dec-07 14:00N 47°42' W 003°24'21469.2 1018.7 10.7
2019-Dec-07 13:59N 47°44' W 003°22'2 2.0
2019-Dec-07 13:00N 47°42' W 003°24'0 0.0 1019.2 10.7
2019-Dec-07 12:00N 47°42' W 003°24'0 0.0 1019.5 10.4
2019-Dec-07 11:00N 47°42' W 003°24'2 4.2 1019.7 10.2
2019-Dec-07 10:30N 47°44' W 003°22'2 4.0
2019-Dec-07 10:00N 47°42' W 003°24'2 4.2 1019.6 10.5
2019-Dec-07 09:30N 47°44' W 003°22'2 4.0
2019-Dec-07 09:00N 47°42' W 003°24'2 4.0 1019.6 10.2
2019-Dec-07 08:28N 47°44' W 003°22'2 4.2
2019-Dec-07 08:00N 47°42' W 003°24'2 2.1 1019.4 10.2
2019-Dec-07 07:00N 47°44' W 003°22'2127.0
2019-Dec-07 07:00N 47°42' W 003°24'2 4.2 1018.8 10.0
2019-Dec-07 06:30N 47°44' W 003°22'2 4.0
2019-Dec-07 06:00N 47°42' W 003°24'0 0.0 1018.6 10.4
2019-Dec-07 05:00N 47°42' W 003°24'2 4.0 1018.2 10.7
2019-Dec-07 04:28N 47°44' W 003°22'2 4.2
2019-Dec-07 04:00N 47°42' W 003°24'0 0.0 1017.9 10.7
2019-Dec-07 03:00N 47°42' W 003°24'259.4 1018.0 10.7
2019-Dec-07 02:57N 47°44' W 003°22'2 2.1
2019-Dec-07 02:00N 47°42' W 003°24'0 0.0 1017.6 10.7
2019-Dec-07 01:00N 47°42' W 003°24'22454.2 1017.3 10.7
2019-Dec-07 00:59N 47°44' W 003°22'2 2.0
2019-Dec-07 00:00N 47°42' W 003°24'260.4 1017.4 10.5
2019-Dec-06 23:57N 47°44' W 003°22'0 0.0
2019-Dec-06 23:30N 47°44' W 003°22'2 4.0
2019-Dec-06 23:00N 47°42' W 003°24'0 0.0 1017.5 10.5
2019-Dec-06 22:00N 47°42' W 003°24'2 4.1 1017.0 10.5
2019-Dec-06 21:29N 47°44' W 003°22'2 4.1
2019-Dec-06 21:00N 47°42' W 003°24'21227.6 1016.8 10.7
2019-Dec-06 20:59N 47°44' W 003°22'2 2.0
2019-Dec-06 20:00N 47°42' W 003°24'21474.1 1016.5 10.5
2019-Dec-06 19:59N 47°44' W 003°22'0 0.0
2019-Dec-06 19:29N 47°44' W 003°22'2 4.1
2019-Dec-06 19:00N 47°42' W 003°24'0 0.0 1016.3 10.7
2019-Dec-06 18:00N 47°42' W 003°24'21841.0 1015.7 10.5
2019-Dec-06 17:59N 47°44' W 003°22'2 2.0
2019-Dec-06 17:00N 47°42' W 003°24'22453.0 1015.4 10.9
2019-Dec-06 16:59N 47°44' W 003°22'2 2.0
2019-Dec-06 16:00N 47°42' W 003°24'22448.0 1015.0 11.2
2019-Dec-06 15:59N 47°44' W 003°22'2 2.0
2019-Dec-06 15:00N 47°42' W 003°24'2 4.2 1014.8 11.2
2019-Dec-06 14:30N 47°44' W 003°22'0 0.0
2019-Dec-06 14:00N 47°44' W 003°22'2129.2
2019-Dec-06 14:00N 47°42' W 003°24'2 2.1 1015.1 10.9
2019-Dec-06 13:00N 47°44' W 003°22'2127.0
2019-Dec-06 13:00N 47°42' W 003°24'2 4.2 1015.4 10.7
2019-Dec-06 12:31N 47°44' W 003°22'2 4.0
2019-Dec-06 12:00N 47°42' W 003°24'2113.2 1016.8 10.4
2019-Dec-06 11:58N 47°44' W 003°22'2 2.1
2019-Dec-06 11:00N 47°42' W 003°24'2113.2 1017.7 10.0
2019-Dec-06 10:58N 47°44' W 003°22'2 2.1
2019-Dec-06 10:00N 47°42' W 003°24'0 0.0 1018.4 9.5
2019-Dec-06 09:00N 47°42' W 003°24'0 0.0 1018.8 9.4
2019-Dec-06 08:00N 47°42' W 003°24'0 0.0 1018.9 9.4
2019-Dec-06 07:00N 47°42' W 003°24'21841.5 1019.1 9.4
2019-Dec-06 06:59N 47°44' W 003°22'0 0.0
2019-Dec-06 06:29N 47°44' W 003°22'2 4.1
2019-Dec-06 06:00N 47°42' W 003°24'0 0.0 9.4
2019-Dec-06 05:00N 47°42' W 003°24'2 4.1 9.4
2019-Dec-06 04:29N 47°44' W 003°22'2 4.1
2019-Dec-06 04:00N 47°42' W 003°24'0 0.0 9.4
2019-Dec-06 03:00N 47°42' W 003°24'2 2.1 9.4
2019-Dec-06 02:00N 47°44' W 003°22'2133.8
2019-Dec-06 02:00N 47°42' W 003°24'2 4.2 9.5
2019-Dec-06 01:30N 47°44' W 003°22'2 4.0
2019-Dec-06 01:00N 47°42' W 003°24'0 0.0 9.9
2019-Dec-06 00:00N 47°42' W 003°24'0 0.0 9.9
2019-Dec-05 23:00N 47°42' W 003°24'2 4.2 9.4
2019-Dec-05 22:30N 47°44' W 003°22'2 4.0
2019-Dec-05 22:00N 47°42' W 003°24'0 0.0 9.4
2019-Dec-05 21:00N 47°42' W 003°24'0 0.0 9.7
2019-Dec-05 20:00N 47°42' W 003°24'2 4.1 9.4
2019-Dec-05 19:29N 47°44' W 003°22'2 4.1
2019-Dec-05 19:00N 47°42' W 003°24'2 4.1 9.2
2019-Dec-05 18:29N 47°44' W 003°22'2 4.1
2019-Dec-05 18:00N 47°42' W 003°24'2 4.2 9.0
2019-Dec-05 17:30N 47°44' W 003°22'2 4.0
2019-Dec-05 17:00N 47°42' W 003°24'2 4.2 9.0
2019-Dec-05 16:30N 47°44' W 003°22'2 4.0
2019-Dec-05 16:00N 47°42' W 003°24'2 4.2 8.9
2019-Dec-05 15:30N 47°44' W 003°22'2 4.0
2019-Dec-05 15:00N 47°42' W 003°24'0 0.0 8.9
2019-Dec-05 14:00N 47°42' W 003°24'2 4.1 8.9
2019-Dec-05 13:29N 47°44' W 003°22'2 4.1
2019-Dec-05 13:00N 47°42' W 003°24'22453.7 9.0
2019-Dec-05 12:59N 47°44' W 003°22'2 2.0
2019-Dec-05 12:00N 47°42' W 003°24'0 0.0 9.4
2019-Dec-05 11:00N 47°42' W 003°24'0 0.0 8.9
2019-Dec-05 10:00N 47°42' W 003°24'   8.4
Track history (hours):
 
Tides and Currents Weather Stations Pressure Air Temp Water Temp Dewpoint Dewpoint Depression Visibility Wind Speed Wind Dir Waves Ship Positions

Oceanographic research ship Tara (France)

Ex Antarctica.

Ship's website: http://www.taraexpeditions.org/site/index.php?id_lang_global_new=uk

Last reported at 2019-Dec-15 10:00 UTC. Time now 2019-Dec-15 11:04 UTC.
Position N 47°42' W 003°24'.

Length 36 m; beam 10 m.

Type: Other ship. MMSI: 226070000.

Barometer 1003.3 mb
Water temperature 10.4 ° C

Date/timePositionNaut miles runAvg speedWind from/ knotsBaromVisibWave heightAir tempDewpointWater temp
2019-Dec-15 10:00N 47°42' W 003°24'0 0.0 1003.3 10.4
2019-Dec-15 09:00N 47°42' W 003°24'0 0.0 1002.8 10.2
2019-Dec-15 08:00N 47°42' W 003°24'2 4.6 1002.3 10.2
2019-Dec-15 07:28N 47°44' W 003°22'2 5.0
2019-Dec-15 07:00N 47°42' W 003°24'0 0.0 1002.1 10.2
2019-Dec-15 06:00N 47°42' W 003°24'0 0.0 1001.5 10.4
2019-Dec-15 05:00N 47°42' W 003°24'2 2.4 1001.1 10.5
2019-Dec-15 04:00N 47°44' W 003°22'2209.8
2019-Dec-15 04:00N 47°42' W 003°24'2 4.9 1000.6 10.9
2019-Dec-15 03:30N 47°44' W 003°22'0 0.0
2019-Dec-15 03:00N 47°44' W 003°22'2220.5
2019-Dec-15 03:00N 47°42' W 003°24'0 0.0 1000.1 11.0
2019-Dec-15 02:00N 47°42' W 003°24'2 2.4 999.4 11.2
2019-Dec-15 01:00N 47°44' W 003°22'2232.3
2019-Dec-15 01:00N 47°42' W 003°24'0 0.0 998.9 11.7
2019-Dec-15 00:00N 47°42' W 003°24'2103.6 998.1 12.2
2019-Dec-14 23:58N 47°44' W 003°22'0 0.0
2019-Dec-14 23:26N 47°44' W 003°22'2 5.4
2019-Dec-14 23:00N 47°42' W 003°24'0 0.0 997.2 12.7
2019-Dec-14 22:00N 47°42' W 003°24'0 0.0 996.9 12.7
2019-Dec-14 21:00N 47°42' W 003°24'0 0.0 997.0 12.4
2019-Dec-14 20:00N 47°42' W 003°24'0 0.0 996.9 12.5
2019-Dec-14 19:00N 47°42' W 003°24'0 0.0 998.0 12.2
2019-Dec-14 18:00N 47°42' W 003°24'2 4.9 998.8 12.4
2019-Dec-14 17:30N 47°44' W 003°22'2 4.7
2019-Dec-14 17:00N 47°42' W 003°24'0 0.0 999.4 12.2
2019-Dec-14 16:00N 47°42' W 003°24'2 4.6 1000.3 12.7
2019-Dec-14 15:28N 47°44' W 003°22'2 5.0
2019-Dec-14 15:00N 47°42' W 003°24'2106.2 1000.7 12.9
2019-Dec-14 14:58N 47°44' W 003°22'0 0.0
2019-Dec-14 14:28N 47°44' W 003°22'2 5.0
2019-Dec-14 14:00N 47°42' W 003°24'0 0.0 1001.6 13.4
2019-Dec-14 13:00N 47°42' W 003°24'2 4.7 1002.2 13.9
2019-Dec-14 12:29N 47°44' W 003°22'2 4.8
2019-Dec-14 12:00N 47°42' W 003°24'0 0.0 1002.7 13.4
2019-Dec-14 11:00N 47°42' W 003°24'2 4.9 1002.8 12.7
2019-Dec-14 10:30N 47°44' W 003°22'2 4.7
2019-Dec-14 10:00N 47°42' W 003°24'2 4.9 1002.2 12.0
2019-Dec-14 09:30N 47°44' W 003°22'2 4.7
2019-Dec-14 09:00N 47°42' W 003°24'0 0.0 1001.2 11.5
2019-Dec-14 08:00N 47°42' W 003°24'2 2.4 1000.2 11.4
2019-Dec-14 07:00N 47°44' W 003°22'2209.7
2019-Dec-14 07:00N 47°42' W 003°24'2 4.9 999.7 11.4
2019-Dec-14 06:30N 47°44' W 003°22'2 4.7
2019-Dec-14 06:00N 47°42' W 003°24'2390.9 999.3 11.4
2019-Dec-14 05:59N 47°44' W 003°22'2 2.4
2019-Dec-14 05:00N 47°42' W 003°24'2409.6 999.3 11.2
2019-Dec-14 04:59N 47°44' W 003°22'0 0.0
2019-Dec-14 04:30N 47°44' W 003°22'2 4.7
2019-Dec-14 04:00N 47°42' W 003°24'2 4.9 999.5 11.4
2019-Dec-14 03:30N 47°44' W 003°22'2 4.7
2019-Dec-14 03:00N 47°42' W 003°24'2104.8 999.3 11.7
2019-Dec-14 02:58N 47°44' W 003°22'2 2.4
2019-Dec-14 02:00N 47°42' W 003°24'2 4.6 998.3 11.9
2019-Dec-14 01:28N 47°44' W 003°22'2 5.0
2019-Dec-14 01:00N 47°42' W 003°24'0 0.0 997.3 12.4
2019-Dec-14 00:00N 47°42' W 003°24'2 4.7 996.2 12.9
2019-Dec-13 23:29N 47°44' W 003°22'2 4.8
2019-Dec-13 23:00N 47°42' W 003°24'2 4.7 995.0 12.9
2019-Dec-13 22:29N 47°44' W 003°22'2 4.8
2019-Dec-13 22:00N 47°42' W 003°24'0 0.0 994.4 13.0
2019-Dec-13 21:00N 47°42' W 003°24'2 4.6 994.3 12.9
2019-Dec-13 20:28N 47°44' W 003°22'2 5.0
2019-Dec-13 20:00N 47°42' W 003°24'0 0.0 994.6 12.9
2019-Dec-13 19:00N 47°42' W 003°24'2 4.7 994.4 12.7
2019-Dec-13 18:29N 47°44' W 003°22'2 4.8
2019-Dec-13 18:00N 47°42' W 003°24'0 0.0 994.3 12.5
2019-Dec-13 17:00N 47°42' W 003°24'2409.3 994.4 11.9
2019-Dec-13 16:59N 47°44' W 003°22'2 2.4
2019-Dec-13 16:00N 47°42' W 003°24'2506.1 995.3 11.2
2019-Dec-13 15:59N 47°44' W 003°22'2 2.4
2019-Dec-13 15:00N 47°42' W 003°24'0 0.0 995.9 11.4
2019-Dec-13 14:00N 47°42' W 003°24'0 0.0 996.3 11.4
2019-Dec-13 13:00N 47°42' W 003°24'0 0.0 996.6 11.4
2019-Dec-13 12:00N 47°42' W 003°24'0 0.0 996.5 11.4
2019-Dec-13 11:00N 47°42' W 003°24'0 0.0 996.0 10.5
2019-Dec-13 10:00N 47°42' W 003°24'0 0.0 995.6 9.7
2019-Dec-13 09:00N 47°42' W 003°24'2 4.9 994.1 9.2
2019-Dec-13 08:30N 47°44' W 003°22'2 4.7
2019-Dec-13 08:00N 47°42' W 003°24'0 0.0 993.4 9.2
2019-Dec-13 07:00N 47°42' W 003°24'2122.8 991.7 9.4
2019-Dec-13 06:58N 47°44' W 003°22'0 0.0
2019-Dec-13 06:28N 47°44' W 003°22'2 5.0
2019-Dec-13 06:00N 47°42' W 003°24'2119.1 990.8 9.5
2019-Dec-13 05:58N 47°44' W 003°22'2 2.4
2019-Dec-13 05:00N 47°42' W 003°24'2 4.9 989.1 9.9
2019-Dec-13 04:30N 47°44' W 003°22'2 4.7
2019-Dec-13 04:00N 47°42' W 003°24'0 0.0 988.8 10.2
2019-Dec-13 03:00N 47°42' W 003°24'0 0.0 987.7 10.7
2019-Dec-13 02:00N 47°42' W 003°24'265.1 986.5 10.9
2019-Dec-13 01:57N 47°44' W 003°22'2 2.5
2019-Dec-13 01:00N 47°42' W 003°24'0 0.0 985.8 11.2
2019-Dec-13 00:00N 47°42' W 003°24'2 4.8 985.0 12.7
2019-Dec-12 23:29N 47°44' W 003°22'2 4.8
2019-Dec-12 23:00N 47°42' W 003°24'0 0.0 985.8 12.4
2019-Dec-12 22:00N 47°42' W 003°24'0 0.0 987.1 12.2
2019-Dec-12 21:00N 47°42' W 003°24'0 0.0 988.2 12.2
2019-Dec-12 20:00N 47°42' W 003°24'2716.3 988.7 12.2
2019-Dec-12 19:59N 47°44' W 003°22'2 2.4
2019-Dec-12 19:00N 47°42' W 003°24'0 0.0 989.8 12.0
2019-Dec-12 18:00N 47°42' W 003°24'2 0.8 990.1 11.9
2019-Dec-12 15:00N 47°44' W 003°22'0 0.0
2019-Dec-12 13:30N 47°44' W 003°22'0 0.0
2019-Dec-12 12:31N 47°44' W 003°22'0 0.0
2019-Dec-12 11:00N 47°44' W 003°22'0 0.0
2019-Dec-12 10:30N 47°44' W 003°22'0 0.0
2019-Dec-12 08:59N 47°44' W 003°22'0 0.0
2019-Dec-12 07:28N 47°44' W 003°22'2 5.1
2019-Dec-12 07:00N 47°42' W 003°24'0 0.0 1000.9 10.2
2019-Dec-12 06:00N 47°42' W 003°24'2148.3 1002.7 9.9
2019-Dec-12 05:59N 47°44' W 003°22'2 2.4
2019-Dec-12 05:00N 47°42' W 003°24'2 4.5 1003.8 9.4
2019-Dec-12 04:28N 47°44' W 003°22'2 5.1
2019-Dec-12 04:00N 47°42' W 003°24'0 0.0 1005.6 8.9
2019-Dec-12 03:00N 47°42' W 003°24'0 0.0 1007.2 8.4
2019-Dec-12 02:00N 47°42' W 003°24'2148.3 1008.4 7.7
2019-Dec-12 01:59N 47°44' W 003°22'0 0.0
2019-Dec-12 01:29N 47°44' W 003°22'2 4.9
2019-Dec-12 01:00N 47°42' W 003°24'2 4.0 1009.4 7.5
2019-Dec-12 00:24N 47°44' W 003°22'0 0.0
2019-Dec-12 00:01N 47°44' W 003°22'2140.9
2019-Dec-12 00:00N 47°42' W 003°24'0 0.0 1010.3 7.4
2019-Dec-11 23:00N 47°42' W 003°24'2 4.8 1010.8 7.2
2019-Dec-11 22:30N 47°44' W 003°22'2 4.8
2019-Dec-11 22:00N 47°42' W 003°24'0 0.0 1011.1 7.2
2019-Dec-11 21:00N 47°42' W 003°24'28616.4 1011.0 7.2
2019-Dec-11 20:59N 47°44' W 003°22'2 2.4
2019-Dec-11 20:00N 47°42' W 003°24'2 5.0 1010.6 7.4
2019-Dec-11 19:31N 47°44' W 003°22'2 4.6
2019-Dec-11 19:00N 47°42' W 003°24'0 0.0 1010.4 7.5
2019-Dec-11 18:00N 47°42' W 003°24'0 0.0 1010.1 7.7
2019-Dec-11 17:00N 47°42' W 003°24'0 0.0 1009.5 7.9
2019-Dec-11 16:00N 47°42' W 003°24'0 0.0 1009.0 8.4
2019-Dec-11 15:00N 47°42' W 003°24'0 0.0 1008.2 8.7
2019-Dec-11 14:00N 47°42' W 003°24'2 0.8 1007.8 9.4
2019-Dec-11 11:01N 47°44' W 003°22'0 0.0
2019-Dec-11 09:00N 47°44' W 003°22'0 0.1
2019-Dec-11 07:28N 47°44' W 003°22'0 0.2
2019-Dec-11 06:01N 47°44' W 003°22'0 0.0
2019-Dec-11 04:29N 47°44' W 003°22'0 0.0
2019-Dec-11 03:27N 47°44' W 003°22'0 0.0
2019-Dec-11 03:01N 47°44' W 003°22'0 0.0
2019-Dec-10 22:59N 47°44' W 003°22'0 0.0
2019-Dec-10 21:59N 47°44' W 003°22'0 0.0
2019-Dec-10 20:30N 47°44' W 003°22'0 0.0
2019-Dec-10 18:29N 47°44' W 003°22'0 0.0
2019-Dec-10 16:28N 47°44' W 003°22'0 0.0
2019-Dec-10 14:30N 47°44' W 003°22'0 0.0
2019-Dec-10 12:59N 47°44' W 003°22'0 0.0
2019-Dec-10 12:29N 47°44' W 003°22'0 0.0
2019-Dec-10 11:28N 47°44' W 003°22'0 0.0
2019-Dec-10 10:28N 47°44' W 003°22'0 0.0
2019-Dec-10 09:28N 47°44' W 003°22'0 0.0
2019-Dec-10 08:58N 47°44' W 003°22'0 0.0
2019-Dec-10 06:29N 47°44' W 003°22'0 0.0
2019-Dec-10 04:28N 47°44' W 003°22'0 0.0
2019-Dec-10 03:28N 47°44' W 003°22'0 0.0
2019-Dec-10 02:58N 47°44' W 003°22'0 0.0
2019-Dec-10 01:58N 47°44' W 003°22'0 0.0
2019-Dec-09 21:58N 47°44' W 003°22'0 0.0
2019-Dec-09 20:58N 47°44' W 003°22'0 0.0
2019-Dec-09 20:28N 47°44' W 003°22'0 0.0
2019-Dec-09 19:58N 47°44' W 003°22'0 0.0
2019-Dec-09 17:59N 47°44' W 003°22'0 0.0
2019-Dec-09 06:57N 47°44' W 003°22'0 0.0
2019-Dec-09 04:29N 47°44' W 003°22'0 0.0
2019-Dec-09 03:30N 47°44' W 003°22'0 0.0
2019-Dec-08 22:29N 47°44' W 003°22'0 0.0
2019-Dec-08 20:30N 47°44' W 003°22'0 0.0
2019-Dec-08 20:00N 47°44' W 003°22'0 0.0
2019-Dec-08 18:00N 47°44' W 003°22'0 0.0
2019-Dec-08 17:00N 47°44' W 003°22'0 0.0
2019-Dec-08 13:00N 47°44' W 003°22'0 0.0
2019-Dec-08 11:00N 47°44' W 003°22'0 0.0
2019-Dec-08 10:00N 47°44' W 003°22'0 0.0
2019-Dec-08 09:00N 47°44' W 003°22'0 0.0
2019-Dec-08 03:28N 47°44' W 003°22'0 0.0
2019-Dec-08 02:59N 47°44' W 003°22'0 0.0
2019-Dec-08 02:29N 47°44' W 003°22'0 0.0
2019-Dec-08 01:29N 47°44' W 003°22'0 0.0
2019-Dec-08 00:00N 47°44' W 003°22'0 0.0
2019-Dec-07 23:30N 47°44' W 003°22'0 0.0
2019-Dec-07 21:30N 47°44' W 003°22'0 0.0
2019-Dec-07 20:29N 47°44' W 003°22'2 0.5
2019-Dec-07 16:00N 47°42' W 003°24'2 4.2 1018.6 10.7
2019-Dec-07 15:30N 47°44' W 003°22'2 4.0
2019-Dec-07 15:00N 47°42' W 003°24'2 4.2 1018.7 10.7
2019-Dec-07 14:31N 47°44' W 003°22'2 4.0
2019-Dec-07 14:00N 47°42' W 003°24'21469.2 1018.7 10.7
2019-Dec-07 13:59N 47°44' W 003°22'2 2.0
2019-Dec-07 13:00N 47°42' W 003°24'0 0.0 1019.2 10.7
2019-Dec-07 12:00N 47°42' W 003°24'0 0.0 1019.5 10.4
2019-Dec-07 11:00N 47°42' W 003°24'2 4.2 1019.7 10.2
2019-Dec-07 10:30N 47°44' W 003°22'2 4.0
2019-Dec-07 10:00N 47°42' W 003°24'2 4.2 1019.6 10.5
2019-Dec-07 09:30N 47°44' W 003°22'2 4.0
2019-Dec-07 09:00N 47°42' W 003°24'2 4.0 1019.6 10.2
2019-Dec-07 08:28N 47°44' W 003°22'2 4.2
2019-Dec-07 08:00N 47°42' W 003°24'2 2.1 1019.4 10.2
2019-Dec-07 07:00N 47°44' W 003°22'2127.0
2019-Dec-07 07:00N 47°42' W 003°24'2 4.2 1018.8 10.0
2019-Dec-07 06:30N 47°44' W 003°22'2 4.0
2019-Dec-07 06:00N 47°42' W 003°24'0 0.0 1018.6 10.4
2019-Dec-07 05:00N 47°42' W 003°24'2 4.0 1018.2 10.7
2019-Dec-07 04:28N 47°44' W 003°22'2 4.2
2019-Dec-07 04:00N 47°42' W 003°24'0 0.0 1017.9 10.7
2019-Dec-07 03:00N 47°42' W 003°24'259.4 1018.0 10.7
2019-Dec-07 02:57N 47°44' W 003°22'2 2.1
2019-Dec-07 02:00N 47°42' W 003°24'0 0.0 1017.6 10.7
2019-Dec-07 01:00N 47°42' W 003°24'22454.2 1017.3 10.7
2019-Dec-07 00:59N 47°44' W 003°22'2 2.0
2019-Dec-07 00:00N 47°42' W 003°24'260.4 1017.4 10.5
2019-Dec-06 23:57N 47°44' W 003°22'0 0.0
2019-Dec-06 23:30N 47°44' W 003°22'2 4.0
2019-Dec-06 23:00N 47°42' W 003°24'0 0.0 1017.5 10.5
2019-Dec-06 22:00N 47°42' W 003°24'2 4.1 1017.0 10.5
2019-Dec-06 21:29N 47°44' W 003°22'2 4.1
2019-Dec-06 21:00N 47°42' W 003°24'21227.6 1016.8 10.7
2019-Dec-06 20:59N 47°44' W 003°22'2 2.0
2019-Dec-06 20:00N 47°42' W 003°24'21474.1 1016.5 10.5
2019-Dec-06 19:59N 47°44' W 003°22'0 0.0
2019-Dec-06 19:29N 47°44' W 003°22'2 4.1
2019-Dec-06 19:00N 47°42' W 003°24'0 0.0 1016.3 10.7
2019-Dec-06 18:00N 47°42' W 003°24'21841.0 1015.7 10.5
2019-Dec-06 17:59N 47°44' W 003°22'2 2.0
2019-Dec-06 17:00N 47°42' W 003°24'22453.0 1015.4 10.9
2019-Dec-06 16:59N 47°44' W 003°22'2 2.0
2019-Dec-06 16:00N 47°42' W 003°24'22448.0 1015.0 11.2
2019-Dec-06 15:59N 47°44' W 003°22'2 2.0
2019-Dec-06 15:00N 47°42' W 003°24'2 4.2 1014.8 11.2
2019-Dec-06 14:30N 47°44' W 003°22'0 0.0
2019-Dec-06 14:00N 47°44' W 003°22'2129.2
2019-Dec-06 14:00N 47°42' W 003°24'2 2.1 1015.1 10.9
2019-Dec-06 13:00N 47°44' W 003°22'2127.0
2019-Dec-06 13:00N 47°42' W 003°24'2 4.2 1015.4 10.7
2019-Dec-06 12:31N 47°44' W 003°22'2 4.0
2019-Dec-06 12:00N 47°42' W 003°24'2113.2 1016.8 10.4
2019-Dec-06 11:58N 47°44' W 003°22'2 2.1
2019-Dec-06 11:00N 47°42' W 003°24'2113.2 1017.7 10.0
2019-Dec-06 10:58N 47°44' W 003°22'2 2.1
2019-Dec-06 10:00N 47°42' W 003°24'0 0.0 1018.4 9.5
2019-Dec-06 09:00N 47°42' W 003°24'0 0.0 1018.8 9.4
2019-Dec-06 08:00N 47°42' W 003°24'0 0.0 1018.9 9.4
2019-Dec-06 07:00N 47°42' W 003°24'21841.5 1019.1 9.4
2019-Dec-06 06:59N 47°44' W 003°22'0 0.0
2019-Dec-06 06:29N 47°44' W 003°22'2 4.1
2019-Dec-06 06:00N 47°42' W 003°24'0 0.0 9.4
2019-Dec-06 05:00N 47°42' W 003°24'2 4.1 9.4
2019-Dec-06 04:29N 47°44' W 003°22'2 4.1
2019-Dec-06 04:00N 47°42' W 003°24'0 0.0 9.4
2019-Dec-06 03:00N 47°42' W 003°24'2 2.1 9.4
2019-Dec-06 02:00N 47°44' W 003°22'2133.8
2019-Dec-06 02:00N 47°42' W 003°24'2 4.2 9.5
2019-Dec-06 01:30N 47°44' W 003°22'2 4.0
2019-Dec-06 01:00N 47°42' W 003°24'0 0.0 9.9
2019-Dec-06 00:00N 47°42' W 003°24'0 0.0 9.9
2019-Dec-05 23:00N 47°42' W 003°24'2 4.2 9.4
2019-Dec-05 22:30N 47°44' W 003°22'2 4.0
2019-Dec-05 22:00N 47°42' W 003°24'0 0.0 9.4
2019-Dec-05 21:00N 47°42' W 003°24'0 0.0 9.7
2019-Dec-05 20:00N 47°42' W 003°24'2 4.1 9.4
2019-Dec-05 19:29N 47°44' W 003°22'2 4.1
2019-Dec-05 19:00N 47°42' W 003°24'2 4.1 9.2
2019-Dec-05 18:29N 47°44' W 003°22'2 4.1
2019-Dec-05 18:00N 47°42' W 003°24'2 4.2 9.0
2019-Dec-05 17:30N 47°44' W 003°22'2 4.0
2019-Dec-05 17:00N 47°42' W 003°24'2 4.2 9.0
2019-Dec-05 16:30N 47°44' W 003°22'2 4.0
2019-Dec-05 16:00N 47°42' W 003°24'2 4.2 8.9
2019-Dec-05 15:30N 47°44' W 003°22'2 4.0
2019-Dec-05 15:00N 47°42' W 003°24'0 0.0 8.9
2019-Dec-05 14:00N 47°42' W 003°24'2 4.1 8.9
2019-Dec-05 13:29N 47°44' W 003°22'2 4.1
2019-Dec-05 13:00N 47°42' W 003°24'22453.7 9.0
2019-Dec-05 12:59N 47°44' W 003°22'2 2.0
2019-Dec-05 12:00N 47°42' W 003°24'0 0.0 9.4
2019-Dec-05 11:00N 47°42' W 003°24'0 0.0 8.9
2019-Dec-05 10:00N 47°42' W 003°24'   8.4

Dump ship's entire track history